Time;durP1;ratioP1;P1;durP2;ratioP2;P2;SDS_P1;SDS_P2;PMS_P1;PMS_P2;Temp;Humidity;BMP_temperature;BMP_pressure;BME280_temperature;BME280_humidity;BME280_pressure;Samples;Min_cycle;Max_cycle;Signal;HPM_P1;HPM_P2
2022/07/26 00:02:20;;;;;;;2.05;1.10;;;;;;;21.90;54.28;95561.41;5030291;28;20271;-77
2022/07/26 00:04:45;;;;;;;2.08;1.10;;;;;;;21.86;54.87;95568.16;5053503;28;20181;-77
2022/07/26 00:07:11;;;;;;;1.45;1.00;;;;;;;21.87;54.55;95567.16;5048097;28;20193;-77
2022/07/26 00:09:36;;;;;;;4.07;1.00;;;;;;;21.90;54.58;95570.16;5061592;28;20539;-78
2022/07/26 00:12:02;;;;;;;7.07;1.20;;;;;;;21.83;55.86;95574.72;5045452;28;20214;-78
2022/07/26 00:14:27;;;;;;;2.35;1.00;;;;;;;21.85;56.11;95577.13;5061815;28;20239;-77
2022/07/26 00:16:53;;;;;;;3.58;1.20;;;;;;;21.95;56.03;95580.88;5057389;28;20309;-77
2022/07/26 00:19:18;;;;;;;2.88;1.10;;;;;;;21.84;57.48;95580.81;5025777;28;20219;-78
2022/07/26 00:21:43;;;;;;;2.88;1.35;;;;;;;21.59;58.28;95581.59;5046845;28;20209;-78
2022/07/26 00:24:09;;;;;;;1.58;1.20;;;;;;;21.54;59.05;95585.91;5047834;28;20212;-77
2022/07/26 00:26:34;;;;;;;2.42;1.30;;;;;;;21.26;61.66;95595.00;5050389;28;20196;-77
2022/07/26 00:29:02;;;;;;;4.05;1.38;;;;;;;21.05;63.30;95595.34;5062960;28;20238;-77
2022/07/26 00:31:27;;;;;;;2.33;1.20;;;;;;;21.18;63.31;95600.53;5059560;28;20192;-78
2022/07/26 00:33:52;;;;;;;2.97;1.50;;;;;;;20.71;67.55;95615.78;5061405;28;20546;-77
2022/07/26 00:36:18;;;;;;;2.90;1.42;;;;;;;20.48;70.10;95615.47;5044394;28;20595;-77
2022/07/26 00:38:43;;;;;;;4.18;1.10;;;;;;;20.55;70.32;95617.06;5062953;28;20193;-77
2022/07/26 00:41:08;;;;;;;2.88;1.30;;;;;;;20.28;72.24;95618.13;5045260;28;20199;-77
2022/07/26 00:43:33;;;;;;;1.73;1.30;;;;;;;20.12;73.19;95608.81;5058588;28;20205;-77
2022/07/26 00:45:59;;;;;;;3.70;1.50;;;;;;;19.92;75.07;95614.09;5061421;28;20289;-77
2022/07/26 00:48:24;;;;;;;1.23;1.13;;;;;;;19.87;75.57;95611.25;5045371;28;20216;-77
2022/07/26 00:50:52;;;;;;;2.50;1.40;;;;;;;19.84;76.14;95611.69;5059550;28;20243;-77
2022/07/26 00:53:21;;;;;;;1.58;1.33;;;;;;;19.66;77.11;95603.56;5053262;28;20634;-77
2022/07/26 00:55:48;;;;;;;2.10;1.35;;;;;;;19.80;76.46;95605.22;5058551;28;20217;-78
2022/07/26 00:58:13;;;;;;;2.83;1.55;;;;;;;19.51;78.14;95599.28;5042776;28;20178;-77
2022/07/26 01:00:39;;;;;;;2.17;1.45;;;;;;;19.61;77.41;95606.00;5046871;28;20189;-77
2022/07/26 01:03:05;;;;;;;3.35;1.58;;;;;;;19.34;78.68;95607.75;5026537;28;20197;-78
2022/07/26 01:05:30;;;;;;;1.88;1.63;;;;;;;19.26;77.93;95595.63;5061338;28;20177;-76
2022/07/26 01:07:56;;;;;;;3.15;1.60;;;;;;;19.18;78.37;95601.88;5062116;28;20185;-77
2022/07/26 01:10:21;;;;;;;2.00;1.45;;;;;;;19.27;78.28;95593.81;5058129;28;20280;-78
2022/07/26 01:12:47;;;;;;;3.92;1.67;;;;;;;19.35;77.29;95597.06;5045694;28;20236;-77
2022/07/26 01:15:13;;;;;;;2.97;1.40;;;;;;;19.36;78.04;95598.66;5058851;28;20582;-79
2022/07/26 01:17:39;;;;;;;3.67;1.70;;;;;;;19.27;79.46;95591.97;5041447;28;20641;-77
2022/07/26 01:20:06;;;;;;;3.13;1.50;;;;;;;19.27;79.30;95596.44;5064279;28;20188;-78
2022/07/26 01:22:31;;;;;;;2.50;1.65;;;;;;;19.28;79.24;95598.06;5047321;28;20209;-78
2022/07/26 01:24:57;;;;;;;1.85;1.40;;;;;;;19.37;78.29;95597.66;5044003;28;20184;-79
2022/07/26 01:27:22;;;;;;;1.58;1.40;;;;;;;19.41;78.36;95609.41;5061718;28;20200;-78
2022/07/26 01:29:48;;;;;;;3.67;1.80;;;;;;;19.40;78.10;95594.63;5029221;28;20186;-78
2022/07/26 01:32:14;;;;;;;3.33;1.65;;;;;;;19.22;79.13;95595.19;5043719;28;20201;-77
2022/07/26 01:34:39;;;;;;;2.35;1.50;;;;;;;19.27;78.92;95591.16;5060648;28;20688;-78
2022/07/26 01:37:04;;;;;;;2.03;1.23;;;;;;;19.26;78.71;95593.00;5061429;28;20181;-78
2022/07/26 01:39:30;;;;;;;3.35;1.80;;;;;;;19.19;78.93;95592.97;5045945;28;20250;-78
2022/07/26 01:41:55;;;;;;;2.22;1.45;;;;;;;19.28;79.12;95590.97;5045575;28;20217;-78
2022/07/26 01:44:21;;;;;;;3.05;1.60;;;;;;;19.48;77.92;95590.97;5059514;28;20182;-78
2022/07/26 01:46:47;;;;;;;1.70;1.40;;;;;;;19.47;77.34;95590.16;5044068;28;20219;-78
2022/07/26 01:49:12;;;;;;;3.47;1.33;;;;;;;19.41;77.89;95585.69;5062331;28;20606;-78
2022/07/26 01:51:37;;;;;;;5.78;1.70;;;;;;;19.45;77.22;95575.59;5061816;28;20203;-78
2022/07/26 01:54:03;;;;;;;2.45;1.38;;;;;;;19.44;76.64;95573.97;5045280;28;20219;-77
2022/07/26 01:56:28;;;;;;;5.93;2.30;;;;;;;19.49;77.58;95574.97;5062781;28;20185;-77
2022/07/26 01:58:53;;;;;;;5.30;1.52;;;;;;;19.49;76.16;95585.50;5067799;28;20189;-78
2022/07/26 02:01:19;;;;;;;2.28;2.00;;;;;;;19.40;77.26;95593.81;5031376;28;20207;-78
2022/07/26 02:03:44;;;;;;;1.65;1.55;;;;;;;19.34;77.53;95592.78;5066385;28;20575;-77
2022/07/26 02:06:09;;;;;;;1.75;1.48;;;;;;;19.46;76.28;95595.63;5063031;28;20228;-78
2022/07/26 02:08:34;;;;;;;1.70;1.27;;;;;;;19.04;78.03;95594.16;5060996;28;20185;-77
2022/07/26 02:11:00;;;;;;;2.25;1.27;;;;;;;19.32;77.12;95601.88;5049457;28;20182;-77
2022/07/26 02:13:31;;;;;;;2.20;1.77;;;;;;;19.49;76.60;95605.75;5029857;28;20677;-77
2022/07/26 02:15:59;;;;;;;2.67;1.55;;;;;;;19.40;77.28;95605.16;5064419;28;20193;-77
2022/07/26 02:18:26;;;;;;;3.60;1.45;;;;;;;19.39;76.49;95611.44;5030041;28;20538;-78
2022/07/26 02:20:52;;;;;;;1.42;1.27;;;;;;;19.39;77.14;95606.16;5049039;28;20181;-79
2022/07/26 02:23:17;;;;;;;2.80;1.40;;;;;;;19.37;76.76;95604.75;5055617;28;20249;-78
2022/07/26 02:25:42;;;;;;;2.10;1.40;;;;;;;19.36;76.74;95603.13;5061449;28;20267;-78
2022/07/26 02:28:08;;;;;;;2.60;1.65;;;;;;;19.23;77.42;95590.75;5066830;28;20185;-78
2022/07/26 02:30:33;;;;;;;3.28;1.48;;;;;;;19.25;77.05;95592.16;5063058;28;20185;-77
2022/07/26 02:32:58;;;;;;;2.45;1.70;;;;;;;19.31;76.76;95590.56;5054163;28;20210;-77
2022/07/26 02:35:24;;;;;;;2.63;1.50;;;;;;;19.24;76.46;95584.47;5045865;28;20232;-79
2022/07/26 02:37:49;;;;;;;4.18;1.67;;;;;;;19.29;76.24;95583.88;5064122;28;20231;-78
2022/07/26 02:40:14;;;;;;;3.83;1.60;;;;;;;19.40;75.71;95584.06;5047351;28;20200;-78
2022/07/26 02:42:39;;;;;;;2.10;1.90;;;;;;;19.36;76.23;95588.13;5046923;28;20208;-78
2022/07/26 02:45:05;;;;;;;2.65;1.65;;;;;;;19.42;75.78;95589.13;5064039;28;20556;-78
2022/07/26 02:47:31;;;;;;;3.67;1.70;;;;;;;19.32;75.52;95591.34;5065837;28;20674;-78
2022/07/26 02:49:57;;;;;;;1.80;1.70;;;;;;;19.39;74.93;95592.19;5062163;28;20193;-78
2022/07/26 02:52:22;;;;;;;2.78;1.63;;;;;;;19.29;75.50;95591.78;5066158;28;20208;-78
2022/07/26 02:54:47;;;;;;;4.10;1.70;;;;;;;19.21;75.78;95587.50;5044226;28;20202;-78
2022/07/26 02:57:13;;;;;;;2.15;1.95;;;;;;;19.08;75.88;95590.94;5048683;28;20201;-78
2022/07/26 02:59:38;;;;;;;4.55;2.05;;;;;;;18.91;76.91;95585.22;5065743;28;20185;-78
2022/07/26 03:02:04;;;;;;;3.80;1.77;;;;;;;18.90;77.05;95588.03;5055899;28;20201;-77
2022/07/26 03:04:29;;;;;;;2.88;1.77;;;;;;;18.97;76.36;95594.13;5055135;28;20177;-79
2022/07/26 03:06:54;;;;;;;2.70;1.75;;;;;;;18.88;76.79;95588.22;5047843;28;20179;-78
2022/07/26 03:09:20;;;;;;;2.50;1.70;;;;;;;18.81;77.38;95586.56;5066145;28;20196;-78
2022/07/26 03:11:45;;;;;;;2.00;1.77;;;;;;;18.78;77.23;95582.53;5046273;28;20209;-78
2022/07/26 03:14:10;;;;;;;2.38;2.00;;;;;;;18.84;77.17;95586.19;5050717;28;20696;-78
2022/07/26 03:16:35;;;;;;;3.90;1.73;;;;;;;18.77;77.50;95588.81;5064658;28;20288;-77
2022/07/26 03:19:01;;;;;;;1.95;1.80;;;;;;;18.76;76.72;95591.63;5047812;28;20238;-77
2022/07/26 03:21:27;;;;;;;2.30;1.67;;;;;;;18.64;77.70;95586.91;5026375;28;20194;-77
2022/07/26 03:23:52;;;;;;;2.92;1.98;;;;;;;18.71;78.15;95594.84;5047549;28;20652;-77
2022/07/26 03:26:17;;;;;;;1.73;1.60;;;;;;;18.75;77.61;95590.81;5046855;28;20194;-79
2022/07/26 03:28:43;;;;;;;2.40;1.80;;;;;;;18.76;77.55;95595.06;5062976;28;20219;-77
2022/07/26 03:31:09;;;;;;;2.95;1.90;;;;;;;18.64;78.61;95591.34;5064461;28;20583;-77
2022/07/26 03:33:34;;;;;;;2.20;1.88;;;;;;;18.56;78.79;95592.34;5046697;28;20217;-78
2022/07/26 03:35:59;;;;;;;2.50;1.98;;;;;;;18.56;78.75;95587.09;5063595;28;20193;-78
2022/07/26 03:38:25;;;;;;;3.13;1.70;;;;;;;18.50;79.22;95587.84;5065114;28;20185;-78
2022/07/26 03:40:51;;;;;;;3.75;2.17;;;;;;;18.36;79.71;95581.72;5054914;28;20257;-78
2022/07/26 03:43:16;;;;;;;3.28;1.48;;;;;;;18.43;79.46;95586.19;5064191;28;20224;-77
2022/07/26 03:45:41;;;;;;;3.85;2.25;;;;;;;18.47;78.90;95592.72;5030424;28;20185;-77
2022/07/26 03:48:07;;;;;;;2.53;2.33;;;;;;;18.39;79.52;95585.78;5069088;28;20181;-77
2022/07/26 03:50:32;;;;;;;2.83;2.13;;;;;;;18.43;79.43;95592.28;5050881;28;20661;-77
2022/07/26 03:52:57;;;;;;;2.33;2.10;;;;;;;18.43;79.38;95594.09;5043441;28;20202;-78
2022/07/26 03:58:06;;;;;;;2.95;2.33;;;;;;;18.46;79.60;95596.31;5062682;28;20235;-78
2022/07/26 04:00:32;;;;;;;4.18;2.42;;;;;;;18.29;79.92;95596.66;5060953;28;20193;-78
2022/07/26 04:02:57;;;;;;;4.72;2.50;;;;;;;18.31;79.93;95593.84;5034325;28;20255;-77
2022/07/26 04:05:22;;;;;;;3.55;2.60;;;;;;;18.28;80.17;95602.91;5030609;28;20558;-78
2022/07/26 04:07:48;;;;;;;2.60;2.40;;;;;;;18.18;80.46;95607.69;5028247;28;20196;-78
2022/07/26 04:10:14;;;;;;;2.95;2.45;;;;;;;18.26;80.25;95607.53;5029508;28;20211;-78
2022/07/26 04:12:40;;;;;;;4.07;2.80;;;;;;;18.28;79.89;95605.53;5060650;28;20202;-78
2022/07/26 04:15:06;;;;;;;4.97;3.38;;;;;;;18.45;79.10;95611.28;5064325;28;20680;-79
2022/07/26 04:17:38;;;;;;;3.60;3.30;;;;;;;18.50;78.83;95608.09;5061349;28;20277;-78
2022/07/26 04:20:05;;;;;;;4.00;3.17;;;;;;;18.53;78.23;95608.50;5027224;28;20609;-79
2022/07/26 04:22:30;;;;;;;3.50;3.20;;;;;;;18.44;78.88;95614.13;5060971;28;20641;-78
2022/07/26 04:24:56;;;;;;;4.32;2.78;;;;;;;18.49;78.56;95611.72;5062535;28;20184;-77
2022/07/26 04:27:21;;;;;;;3.42;3.00;;;;;;;18.38;79.28;95607.84;5045123;28;20193;-79
2022/07/26 04:29:46;;;;;;;3.25;2.83;;;;;;;18.38;79.89;95613.09;5050438;28;20276;-78
2022/07/26 04:32:12;;;;;;;5.65;3.40;;;;;;;18.54;78.70;95602.22;5043314;28;20915;-80
2022/07/26 04:34:37;;;;;;;2.92;2.63;;;;;;;18.56;78.19;95610.75;5086896;28;20255;-78
2022/07/26 04:37:03;;;;;;;3.30;2.65;;;;;;;18.68;78.15;95611.84;5075991;28;20185;-78
2022/07/26 04:39:28;;;;;;;3.33;2.80;;;;;;;18.70;77.58;95618.72;5048468;28;20289;-78
2022/07/26 04:41:53;;;;;;;3.88;2.63;;;;;;;18.68;77.63;95611.03;5037225;28;20190;-79
2022/07/26 04:44:18;;;;;;;3.78;2.67;;;;;;;18.63;77.68;95614.19;5034705;28;20188;-80
2022/07/26 04:46:44;;;;;;;5.50;2.83;;;;;;;18.51;78.76;95621.03;5060497;28;20690;-79
2022/07/26 04:49:09;;;;;;;4.50;2.70;;;;;;;18.90;76.57;95612.50;5044991;28;20184;-81
2022/07/26 04:51:34;;;;;;;4.97;2.30;;;;;;;19.13;75.07;95624.53;5044609;28;20184;-81
2022/07/26 04:54:00;;;;;;;2.95;2.65;;;;;;;19.94;70.63;95622.63;5061897;28;20538;-81
2022/07/26 04:56:25;;;;;;;4.20;2.40;;;;;;;21.28;65.71;95629.16;5057211;28;20189;-81
2022/07/26 04:58:50;;;;;;;2.30;2.10;;;;;;;22.76;58.89;95631.97;5045245;28;20186;-79
2022/07/26 05:01:16;;;;;;;2.88;1.80;;;;;;;23.78;54.31;95635.56;5032506;28;20559;-80
2022/07/26 05:03:41;;;;;;;3.40;1.60;;;;;;;25.04;49.69;95639.47;5044527;28;20212;-79
2022/07/26 05:06:06;;;;;;;3.25;1.80;;;;;;;25.14;48.67;95649.50;5064689;28;20190;-80
2022/07/26 05:08:32;;;;;;;2.72;1.90;;;;;;;26.18;45.33;95644.69;5046383;28;20189;-79
2022/07/26 05:10:57;;;;;;;2.75;1.63;;;;;;;26.86;42.48;95649.91;5050043;28;20657;-79
2022/07/26 05:13:23;;;;;;;2.15;1.55;;;;;;;27.75;39.73;95641.63;5085531;28;20206;-85
2022/07/26 05:15:48;;;;;;;4.78;1.70;;;;;;;28.57;38.46;95643.06;5062546;28;20185;-86
2022/07/26 05:18:20;;;;;;;2.53;1.60;;;;;;;29.45;36.72;95649.34;5079597;28;20153;-86
2022/07/26 05:20:45;;;;;;;4.07;1.63;;;;;;;28.77;37.02;95645.84;5070787;28;20200;-84
2022/07/26 05:23:10;;;;;;;2.70;1.63;;;;;;;28.86;36.81;95649.63;5042716;28;20210;-88
2022/07/26 05:25:37;;;;;;;5.28;1.48;;;;;;;29.54;35.47;95649.66;5060050;28;20186;-87
2022/07/26 05:28:03;;;;;;;8.40;1.85;;;;;;;29.58;35.44;95651.53;5064279;28;20267;-81
2022/07/26 05:30:28;;;;;;;6.47;1.80;;;;;;;29.74;35.25;95655.03;5064524;28;20177;-80
2022/07/26 05:32:54;;;;;;;3.72;1.50;;;;;;;30.27;34.87;95655.63;5054690;28;20212;-80
2022/07/26 05:35:19;;;;;;;4.63;1.50;;;;;;;29.88;34.44;95660.69;5032797;28;20274;-80
2022/07/26 05:37:45;;;;;;;4.47;1.48;;;;;;;29.44;34.24;95658.44;5034554;28;20198;-80
2022/07/26 05:40:11;;;;;;;1.77;1.25;;;;;;;29.49;34.82;95661.16;5048795;28;20177;-80
2022/07/26 05:42:36;;;;;;;4.47;1.45;;;;;;;29.86;33.29;95660.13;5052041;28;20200;-81
2022/07/26 05:45:02;;;;;;;5.25;1.83;;;;;;;29.86;34.06;95665.50;5055846;28;20265;-80
2022/07/26 05:47:28;;;;;;;7.75;1.40;;;;;;;30.09;33.59;95667.69;5073685;28;20173;-80
2022/07/26 05:49:54;;;;;;;3.13;1.30;;;;;;;29.64;33.48;95656.91;5052913;28;20234;-80
2022/07/26 05:52:19;;;;;;;2.80;1.30;;;;;;;30.65;31.42;95664.16;5034575;28;20206;-79
2022/07/26 05:54:44;;;;;;;3.67;1.05;;;;;;;29.91;32.30;95657.47;5055348;28;20215;-79
2022/07/26 05:57:10;;;;;;;3.05;1.20;;;;;;;30.13;31.58;95665.28;5049520;28;20196;-81
2022/07/26 05:59:35;;;;;;;1.52;1.15;;;;;;;31.14;30.35;95671.53;5067934;28;20181;-80
2022/07/26 06:02:00;;;;;;;3.33;1.23;;;;;;;30.65;30.06;95664.97;5064893;28;20618;-80
2022/07/26 06:04:26;;;;;;;2.83;1.20;;;;;;;30.63;30.35;95664.41;5051181;28;20185;-82
2022/07/26 06:06:51;;;;;;;2.72;1.00;;;;;;;30.82;29.88;95666.53;5051314;28;20260;-81
2022/07/26 06:09:17;;;;;;;1.77;1.20;;;;;;;30.44;29.49;95664.19;5068802;28;20223;-80
2022/07/26 06:11:42;;;;;;;2.75;0.95;;;;;;;30.75;29.42;95663.38;5068939;28;20655;-80
2022/07/26 06:14:07;;;;;;;3.47;1.17;;;;;;;31.06;28.82;95669.44;5030998;28;20522;-81
2022/07/26 06:16:33;;;;;;;3.72;1.10;;;;;;;31.17;28.33;95671.78;5050345;28;20227;-81
2022/07/26 06:18:58;;;;;;;2.55;1.02;;;;;;;30.63;28.70;95663.63;5053789;28;20192;-81
2022/07/26 06:21:23;;;;;;;3.00;1.02;;;;;;;30.96;28.29;95667.59;5037811;28;20200;-81
2022/07/26 06:23:50;;;;;;;1.50;0.90;;;;;;;30.91;28.04;95664.91;5034163;28;20217;-80
2022/07/26 06:26:15;;;;;;;1.05;0.82;;;;;;;30.46;28.31;95662.03;5069864;28;20744;-82
2022/07/26 06:28:42;;;;;;;2.85;1.10;;;;;;;31.45;27.57;95669.53;5057017;28;20193;-80
2022/07/26 06:31:08;;;;;;;3.33;1.02;;;;;;;30.95;27.81;95672.16;5072646;28;20192;-80
2022/07/26 06:33:33;;;;;;;2.53;0.98;;;;;;;29.82;28.60;95669.78;5053362;28;20202;-79
2022/07/26 06:35:59;;;;;;;1.35;0.98;;;;;;;29.92;28.85;95669.78;5035824;28;20240;-80
2022/07/26 06:38:24;;;;;;;7.53;1.23;;;;;;;30.51;27.78;95668.47;5066982;28;20196;-81
2022/07/26 06:40:49;;;;;;;1.30;0.90;;;;;;;30.30;28.36;95673.03;5053658;28;20925;-81
2022/07/26 06:43:15;;;;;;;1.40;0.93;;;;;;;30.81;27.21;95675.66;5049769;28;20209;-81
2022/07/26 06:45:40;;;;;;;2.13;0.95;;;;;;;31.14;27.26;95674.22;5065196;28;20177;-80
2022/07/26 06:48:05;;;;;;;3.40;1.13;;;;;;;30.63;27.09;95677.81;5046624;28;20190;-80
2022/07/26 06:50:31;;;;;;;2.80;0.82;;;;;;;30.80;26.67;95668.69;5050958;28;20191;-79
2022/07/26 06:52:56;;;;;;;2.45;0.95;;;;;;;30.86;26.51;95673.00;5049247;28;20296;-80
2022/07/26 06:55:21;;;;;;;1.88;0.93;;;;;;;31.40;25.78;95672.28;5048450;28;20209;-80
2022/07/26 06:57:47;;;;;;;1.63;0.75;;;;;;;31.05;25.65;95671.31;5068338;28;20671;-81
2022/07/26 07:00:13;;;;;;;2.58;0.88;;;;;;;29.28;28.35;95665.63;5065619;28;20687;-81
2022/07/26 07:02:38;;;;;;;2.25;0.95;;;;;;;29.69;28.09;95672.97;5050877;28;20205;-80
2022/07/26 07:05:04;;;;;;;1.58;0.77;;;;;;;30.73;26.30;95672.47;5030974;28;20185;-79
2022/07/26 07:07:29;;;;;;;3.40;1.40;;;;;;;30.21;27.49;95672.75;5069187;28;20568;-79
2022/07/26 07:09:54;;;;;;;2.08;0.90;;;;;;;30.33;27.56;95672.50;5047668;28;20269;-80
2022/07/26 07:12:19;;;;;;;3.33;1.00;;;;;;;30.78;26.03;95678.91;5065523;28;20252;-80
2022/07/26 07:14:45;;;;;;;3.25;0.82;;;;;;;29.65;27.99;95669.22;5067207;28;20255;-79
2022/07/26 07:17:10;;;;;;;4.32;0.80;;;;;;;29.91;27.06;95681.56;5032834;28;20194;-79
2022/07/26 07:19:36;;;;;;;1.00;0.90;;;;;;;30.60;26.62;95685.59;5032843;28;20233;-80
2022/07/26 07:22:02;;;;;;;2.10;0.88;;;;;;;30.24;26.85;95671.44;5032558;28;20228;-81
2022/07/26 07:24:27;;;;;;;3.80;0.93;;;;;;;30.08;27.04;95667.97;5051667;28;20204;-81
2022/07/26 07:26:53;;;;;;;2.55;0.70;;;;;;;30.13;27.91;95674.13;5061706;28;20200;-81
2022/07/26 07:29:19;;;;;;;2.83;0.65;;;;;;;29.49;27.19;95671.84;5048767;28;20209;-80
2022/07/26 07:31:47;;;;;;;1.42;0.60;;;;;;;29.99;26.85;95681.03;5068047;28;20260;-79
2022/07/26 07:34:14;;;;;;;1.20;0.90;;;;;;;29.19;27.60;95677.09;5048229;28;20209;-81
2022/07/26 07:36:39;;;;;;;4.22;0.88;;;;;;;28.99;27.89;95670.59;5063617;28;20220;-80
2022/07/26 07:39:04;;;;;;;3.58;1.02;;;;;;;29.36;27.50;95669.66;5051286;28;20189;-81
2022/07/26 07:41:33;;;;;;;2.80;0.70;;;;;;;29.80;26.79;95671.94;5060688;28;20193;-79
2022/07/26 07:43:58;;;;;;;2.03;1.00;;;;;;;29.61;28.17;95666.28;5067317;28;20185;-81
2022/07/26 07:46:23;;;;;;;2.75;0.80;;;;;;;29.46;27.43;95669.69;5044927;28;20678;-81
2022/07/26 07:48:48;;;;;;;1.73;0.93;;;;;;;29.77;27.67;95672.44;5063076;28;20239;-80
2022/07/26 07:51:14;;;;;;;2.67;0.80;;;;;;;28.21;29.21;95661.50;5045183;28;20182;-80
2022/07/26 07:53:39;;;;;;;5.47;1.25;;;;;;;28.35;30.23;95667.22;5068796;28;20201;-81
2022/07/26 07:56:04;;;;;;;1.33;0.80;;;;;;;28.29;29.63;95674.41;5030518;28;20209;-80
2022/07/26 07:58:30;;;;;;;2.92;0.77;;;;;;;28.53;29.36;95668.66;5067606;28;20213;-79
2022/07/26 08:00:55;;;;;;;2.83;1.17;;;;;;;28.59;29.21;95673.00;5066515;28;20189;-79
2022/07/26 08:03:20;;;;;;;1.48;0.85;;;;;;;27.91;30.56;95672.72;5046489;28;20209;-79
2022/07/26 08:05:47;;;;;;;2.25;0.90;;;;;;;27.83;30.75;95673.16;5052783;28;20177;-81
2022/07/26 08:08:12;;;;;;;3.90;0.90;;;;;;;27.58;31.26;95669.19;5065155;28;20188;-81
2022/07/26 08:10:37;;;;;;;1.45;0.80;;;;;;;27.13;31.39;95671.34;5048900;28;20207;-80
2022/07/26 08:13:02;;;;;;;3.38;1.10;;;;;;;26.96;31.30;95674.84;5064228;28;20204;-80
2022/07/26 08:15:28;;;;;;;3.20;1.00;;;;;;;26.48;32.42;95664.84;5032369;28;20250;-80
2022/07/26 08:17:53;;;;;;;2.30;0.80;;;;;;;26.48;33.05;95667.50;5062561;28;20194;-79
2022/07/26 08:20:19;;;;;;;2.88;0.77;;;;;;;25.98;33.85;95666.47;5055930;28;20192;-81
2022/07/26 08:22:44;;;;;;;4.88;0.85;;;;;;;26.41;33.34;95666.88;5050198;28;20228;-78
2022/07/26 08:25:09;;;;;;;2.45;0.70;;;;;;;26.19;33.79;95667.59;5065058;28;20182;-81
2022/07/26 08:27:35;;;;;;;2.15;0.80;;;;;;;25.91;33.95;95673.00;5048831;28;20238;-80
2022/07/26 08:30:00;;;;;;;3.10;0.90;;;;;;;25.58;34.17;95681.69;5031676;28;20284;-79
2022/07/26 08:32:26;;;;;;;0.88;0.75;;;;;;;25.50;34.29;95674.88;5065939;28;20232;-81
2022/07/26 08:34:51;;;;;;;3.08;1.05;;;;;;;25.27;34.69;95672.34;5037224;28;20273;-80
2022/07/26 08:37:16;;;;;;;4.65;0.90;;;;;;;25.06;35.37;95666.59;5033441;28;20725;-79
2022/07/26 08:39:42;;;;;;;2.15;0.90;;;;;;;24.57;35.39;95670.59;5032401;28;20189;-80
2022/07/26 08:42:15;;;;;;;1.42;0.70;;;;;;;24.43;36.35;95670.00;5064406;28;20206;-78
2022/07/26 08:44:42;;;;;;;2.78;0.80;;;;;;;23.75;36.82;95673.13;5056255;28;20181;-79
2022/07/26 08:47:10;;;;;;;3.83;0.80;;;;;;;23.87;37.20;95684.59;5039658;28;20235;-80
2022/07/26 08:49:36;;;;;;;2.65;0.88;;;;;;;23.41;37.67;95677.22;5074668;28;20189;-80
2022/07/26 08:52:02;;;;;;;3.30;1.10;;;;;;;23.95;37.46;95681.59;5045727;28;20565;-80
2022/07/26 08:54:27;;;;;;;1.45;0.88;;;;;;;23.77;38.12;95686.97;5051145;28;20209;-81
2022/07/26 08:56:52;;;;;;;3.28;1.38;;;;;;;22.96;39.10;95693.47;5065080;28;20239;-79
2022/07/26 08:59:19;;;;;;;4.63;1.05;;;;;;;23.59;38.42;95679.03;5049973;28;20664;-79
2022/07/26 09:01:54;;;;;;;1.92;0.70;;;;;;;23.69;38.19;95685.47;5050177;28;20288;-79
2022/07/26 09:04:23;;;;;;;2.25;0.98;;;;;;;23.61;38.40;95687.63;5068164;28;20715;-80
2022/07/26 09:07:06;;;;;;;1.90;0.80;;;;;;;23.73;39.20;95681.31;5072149;28;20718;-79
2022/07/26 09:09:33;;;;;;;2.40;0.80;;;;;;;23.39;39.10;95685.41;5037909;28;20239;-80
2022/07/26 09:12:12;;;;;;;1.55;1.13;;;;;;;23.31;38.70;95683.06;5051293;28;20221;-80
2022/07/26 09:14:38;;;;;;;1.88;0.98;;;;;;;22.92;39.64;95689.66;5041666;28;20545;-79
2022/07/26 09:17:04;;;;;;;1.88;1.10;;;;;;;23.08;40.53;95688.28;5050108;28;20259;-79
2022/07/26 09:19:30;;;;;;;4.47;1.10;;;;;;;23.15;41.13;95691.66;5056635;28;20173;-79
2022/07/26 09:21:59;;;;;;;2.42;1.60;;;;;;;22.99;40.26;95695.72;5060605;28;20212;-80
2022/07/26 09:24:29;;;;;;;1.90;1.00;;;;;;;22.82;40.80;95684.88;5052178;28;20189;-79
2022/07/26 09:26:55;;;;;;;5.50;1.20;;;;;;;23.08;41.38;95689.09;5052038;28;20258;-80
2022/07/26 09:29:20;;;;;;;3.17;1.20;;;;;;;23.24;39.75;95692.97;5069826;28;20542;-80
2022/07/26 09:31:46;;;;;;;1.80;0.95;;;;;;;23.57;40.53;95700.47;5034274;28;20242;-79
2022/07/26 09:34:11;;;;;;;1.33;0.93;;;;;;;23.87;39.40;95692.53;5067116;28;20214;-81
2022/07/26 09:36:50;;;;;;;2.85;1.10;;;;;;;24.24;38.89;95697.69;5057453;28;20190;-79
2022/07/26 09:39:15;;;;;;;2.92;1.10;;;;;;;24.02;38.85;95703.50;5051445;28;20179;-80
2022/07/26 09:41:40;;;;;;;2.17;1.10;;;;;;;23.72;39.55;95708.84;5063380;28;20556;-81
2022/07/26 09:44:19;;;;;;;2.22;0.90;;;;;;;23.75;39.99;95704.94;5047812;28;20205;-81
2022/07/26 09:46:56;;;;;;;3.75;1.00;;;;;;;23.95;39.79;95704.66;5058230;28;20178;-82
2022/07/26 09:49:23;;;;;;;5.28;1.15;;;;;;;24.27;38.74;95694.56;5060690;28;20173;-80
2022/07/26 09:51:50;;;;;;;3.70;1.10;;;;;;;24.05;38.59;95699.59;5051033;28;20213;-80
2022/07/26 09:54:18;;;;;;;1.92;1.10;;;;;;;23.97;39.04;95698.09;5049115;28;20224;-79
2022/07/26 09:56:51;;;;;;;1.00;0.90;;;;;;;23.79;38.53;95713.25;5053453;28;20186;-80
2022/07/26 09:59:18;;;;;;;1.85;0.75;;;;;;;23.66;38.77;95711.59;5053271;28;20178;-80
2022/07/26 10:01:44;;;;;;;1.85;1.13;;;;;;;23.48;37.82;95717.72;5034709;28;20190;-80
2022/07/26 10:04:10;;;;;;;3.08;1.10;;;;;;;23.47;38.96;95708.16;5074722;28;20195;-82
2022/07/26 10:06:35;;;;;;;2.47;0.80;;;;;;;23.78;38.42;95716.97;5081930;28;20241;-81
2022/07/26 10:09:01;;;;;;;2.78;0.90;;;;;;;23.88;38.13;95715.38;5073205;28;20177;-82
2022/07/26 10:11:36;;;;;;;1.67;0.90;;;;;;;23.56;38.17;95716.59;5089019;28;20170;-81
2022/07/26 10:14:32;;;;;;;4.05;1.08;;;;;;;23.66;38.66;95716.91;5057134;28;20173;-81
2022/07/26 10:16:59;;;;;;;3.00;0.90;;;;;;;23.71;38.92;95714.38;5085605;28;20193;-83
2022/07/26 10:19:40;;;;;;;3.35;1.27;;;;;;;24.01;37.78;95717.81;5059658;28;20196;-80
2022/07/26 10:22:34;;;;;;;2.00;0.90;;;;;;;24.10;37.16;95717.47;5042331;28;20205;-81
2022/07/26 10:25:17;;;;;;;2.13;0.95;;;;;;;24.18;36.62;95715.31;5050975;28;20193;-82
2022/07/26 10:27:50;;;;;;;2.88;1.05;;;;;;;24.14;36.78;95713.34;5066877;28;20177;-84
2022/07/26 10:30:16;;;;;;;1.33;0.85;;;;;;;23.98;37.82;95709.50;5053736;28;20255;-82
2022/07/26 10:32:55;;;;;;;1.77;0.70;;;;;;;24.17;37.02;95696.97;5042647;28;20689;-83
2022/07/26 10:35:39;;;;;;;1.00;0.90;;;;;;;24.26;38.41;95709.66;5075522;28;20211;-82
2022/07/26 10:38:23;;;;;;;1.00;0.90;;;;;;;24.75;36.65;95720.13;5051332;28;20238;-83
2022/07/26 10:41:03;;;;;;;2.08;0.82;;;;;;;24.54;36.70;95718.81;5066117;28;20659;-83
2022/07/26 10:43:29;;;;;;;1.40;0.82;;;;;;;24.89;35.77;95721.47;5032103;28;20201;-83
2022/07/26 10:46:19;;;;;;;4.18;1.00;;;;;;;24.39;35.81;95708.69;5032861;28;20192;-83
2022/07/26 10:49:13;;;;;;;2.55;1.00;;;;;;;24.31;35.89;95719.59;5065517;28;20265;-83
2022/07/26 10:51:39;;;;;;;2.30;1.00;;;;;;;24.44;35.84;95729.22;4975138;28;20198;-84
2022/07/26 10:54:07;;;;;;;1.63;0.82;;;;;;;24.73;35.97;95733.59;4972511;28;20184;-84
2022/07/26 10:56:32;;;;;;;3.78;1.20;;;;;;;24.80;34.61;95733.50;4991047;28;20200;-84
2022/07/26 10:58:58;;;;;;;2.42;0.93;;;;;;;24.46;37.01;95722.63;4988131;28;20272;-84
2022/07/26 11:01:42;;;;;;;2.60;0.90;;;;;;;24.92;35.99;95726.34;4987459;28;20291;-84
2022/07/26 11:04:20;;;;;;;1.20;0.77;;;;;;;25.12;35.42;95728.63;4993908;28;20192;-82
2022/07/26 11:06:46;;;;;;;1.10;0.60;;;;;;;24.84;34.99;95729.34;4976825;28;20210;-84
2022/07/26 11:09:12;;;;;;;1.77;1.02;;;;;;;25.02;34.52;95726.56;4987179;28;20195;-84
2022/07/26 11:11:37;;;;;;;1.08;0.98;;;;;;;25.17;34.27;95725.25;5005647;28;20201;-83
2022/07/26 11:14:10;;;;;;;2.47;1.00;;;;;;;24.88;34.96;95727.81;4972825;28;20192;-83
2022/07/26 11:16:37;;;;;;;3.10;0.80;;;;;;;25.08;35.08;95728.28;5003838;28;20183;-82
2022/07/26 11:19:37;;;;;;;3.72;0.90;;;;;;;25.18;33.78;95729.53;4988243;28;20221;-84
2022/07/26 11:22:02;;;;;;;2.33;0.60;;;;;;;25.19;33.06;95715.22;4947391;28;20228;-83
2022/07/26 11:24:27;;;;;;;1.77;0.90;;;;;;;25.59;33.75;95707.22;4936233;29;20185;-83
2022/07/26 11:26:53;;;;;;;0.82;0.77;;;;;;;25.45;33.34;95720.00;4947370;28;21197;-84
2022/07/26 11:29:29;;;;;;;2.97;0.90;;;;;;;25.08;33.85;95714.19;4972246;28;20199;-85
2022/07/26 11:31:54;;;;;;;4.13;0.82;;;;;;;25.31;33.78;95719.47;4975460;28;20208;-85
2022/07/26 11:34:22;;;;;;;14.32;1.60;;;;;;;25.26;33.34;95722.00;4986523;28;20216;-85
2022/07/26 11:36:49;;;;;;;1.60;0.75;;;;;;;25.74;33.85;95707.53;4981287;28;20311;-82